Time;durP1;ratioP1;P1;durP2;ratioP2;P2;SDS_P1;SDS_P2;PMS_P1;PMS_P2;Temp;Humidity;BMP_temperature;BMP_pressure;BME280_temperature;BME280_humidity;BME280_pressure;Samples;Min_cycle;Max_cycle;Signal;HPM_P1;HPM_P2
2022/07/19 00:02:07;;;;;;;4.32;3.67;;;;;;;;;;4994174;28;20180;-72
2022/07/19 00:04:33;;;;;;;7.40;3.83;;;;;;;;;;5000716;28;20191;-73
2022/07/19 00:06:58;;;;;;;4.25;3.10;;;;;;;;;;5009080;28;20249;-73
2022/07/19 00:09:24;;;;;;;5.00;3.72;;;;;;;;;;5019197;28;20556;-73
2022/07/19 00:11:49;;;;;;;6.50;3.15;;;;;;;;;;5015114;28;20564;-73
2022/07/19 00:14:15;;;;;;;7.15;3.50;;;;;;;;;;5017677;28;20557;-73
2022/07/19 00:16:40;;;;;;;3.53;3.15;;;;;;;;;;5009402;28;21618;-73
2022/07/19 00:19:05;;;;;;;4.63;3.50;;;;;;;;;;5011416;28;20282;-72
2022/07/19 00:21:30;;;;;;;4.47;3.60;;;;;;;;;;5011128;28;20175;-73
2022/07/19 00:23:56;;;;;;;3.95;3.40;;;;;;;;;;5012926;28;20190;-73
2022/07/19 00:26:21;;;;;;;4.45;3.33;;;;;;;;;;5011957;28;20732;-73
2022/07/19 00:28:46;;;;;;;5.15;3.65;;;;;;;;;;5011767;28;20183;-73
2022/07/19 00:31:11;;;;;;;4.32;3.35;;;;;;;;;;5008355;28;20237;-72
2022/07/19 00:33:37;;;;;;;6.20;4.18;;;;;;;;;;5013710;28;20555;-73
2022/07/19 00:36:02;;;;;;;7.65;4.43;;;;;;;;;;4998971;28;20187;-73
2022/07/19 00:38:27;;;;;;;6.35;3.83;;;;;;;;;;5005249;28;20194;-73
2022/07/19 00:40:52;;;;;;;5.90;4.18;;;;;;;;;;5008824;28;20598;-73
2022/07/19 00:43:17;;;;;;;4.80;3.75;;;;;;;;;;5014194;28;20224;-73
2022/07/19 00:45:43;;;;;;;5.95;4.00;;;;;;;;;;5011219;28;20191;-73
2022/07/19 00:48:08;;;;;;;4.65;3.63;;;;;;;;;;5010463;28;20175;-73
2022/07/19 00:50:33;;;;;;;5.55;3.85;;;;;;;;;;5022400;28;20256;-73
2022/07/19 00:53:00;;;;;;;3.97;3.50;;;;;;;;;;5009436;28;20175;-73
2022/07/19 00:55:27;;;;;;;4.13;3.60;;;;;;;;;;4994192;28;20210;-73
2022/07/19 00:57:53;;;;;;;8.13;4.22;;;;;;;;;;5009136;28;20182;-73
2022/07/19 01:00:18;;;;;;;5.25;3.42;;;;;;;;;;5009698;28;20269;-73
2022/07/19 01:02:44;;;;;;;5.38;3.63;;;;;;;;;;5006922;28;20186;-73
2022/07/19 01:05:10;;;;;;;7.50;3.70;;;;;;;;;;5010795;28;20174;-73
2022/07/19 01:07:37;;;;;;;5.78;4.57;;;;;;;;;;5005442;28;20184;-73
2022/07/19 01:10:03;;;;;;;6.10;4.57;;;;;;;;;;5007711;28;20203;-73
2022/07/19 01:12:29;;;;;;;6.45;4.50;;;;;;;;;;5007101;28;20270;-73
2022/07/19 01:14:56;;;;;;;7.50;4.20;;;;;;;;;;5007427;28;20182;-74
2022/07/19 01:17:21;;;;;;;4.50;3.55;;;;;;;;;;5013335;28;20630;-73
2022/07/19 01:19:46;;;;;;;8.23;4.53;;;;;;;;;;5013501;28;20213;-73
2022/07/19 01:22:11;;;;;;;6.10;3.90;;;;;;;;;;5014776;28;20218;-73
2022/07/19 01:24:37;;;;;;;6.50;4.40;;;;;;;;;;5016587;28;20175;-73
2022/07/19 01:27:02;;;;;;;5.30;4.47;;;;;;;;;;5008549;28;20823;-73
2022/07/19 01:29:27;;;;;;;9.23;5.25;;;;;;;;;;5013758;28;20228;-73
2022/07/19 01:31:52;;;;;;;4.87;4.37;;;;;;;;;;5010797;28;20183;-73
2022/07/19 01:34:17;;;;;;;8.05;4.80;;;;;;;;;;5009163;28;20443;-73
2022/07/19 01:36:43;;;;;;;5.82;4.32;;;;;;;;;;5019470;28;20193;-72
2022/07/19 01:39:08;;;;;;;8.93;4.85;;;;;;;;;;5011108;28;20206;-73
2022/07/19 01:41:33;;;;;;;5.43;4.40;;;;;;;;;;5000156;28;20178;-72
2022/07/19 01:43:58;;;;;;;9.32;4.40;;;;;;;;;;4989377;28;20178;-73
2022/07/19 01:46:24;;;;;;;5.27;4.47;;;;;;;;;;5002373;28;20187;-73
2022/07/19 01:48:49;;;;;;;7.17;4.77;;;;;;;;;;5001990;28;20919;-73
2022/07/19 01:51:14;;;;;;;8.88;5.13;;;;;;;;;;5010885;28;20467;-72
2022/07/19 01:53:40;;;;;;;9.63;5.20;;;;;;;;;;5006914;28;20176;-72
2022/07/19 01:56:05;;;;;;;6.93;5.05;;;;;;;;;;5000143;28;20427;-73
2022/07/19 01:58:31;;;;;;;7.82;4.90;;;;;;;;;;5005807;28;20646;-73
2022/07/19 02:00:56;;;;;;;6.45;4.90;;;;;;;;;;5023736;28;20352;-73
2022/07/19 02:03:21;;;;;;;6.38;5.38;;;;;;;;;;5016225;28;20202;-73
2022/07/19 02:05:46;;;;;;;5.55;4.55;;;;;;;;;;5009256;28;20212;-73
2022/07/19 02:08:11;;;;;;;6.18;4.95;;;;;;;;;;5007648;28;20620;-73
2022/07/19 02:10:37;;;;;;;7.45;4.93;;;;;;;;;;5018399;28;20211;-73
2022/07/19 02:13:02;;;;;;;6.30;4.55;;;;;;;;;;5018275;28;20240;-73
2022/07/19 02:15:28;;;;;;;7.70;5.53;;;;;;;;;;5017434;28;20202;-73
2022/07/19 02:17:53;;;;;;;6.93;5.90;;;;;;;;;;5016121;28;20255;-72
2022/07/19 02:20:18;;;;;;;6.78;5.97;;;;;;;;;;5015513;28;20700;-73
2022/07/19 02:22:44;;;;;;;9.10;7.28;;;;;;;;;;5016226;28;20561;-73
2022/07/19 02:25:09;;;;;;;9.82;6.72;;;;;;;;;;5012941;28;20636;-73
2022/07/19 02:27:35;;;;;;;10.13;6.90;;;;;;;;;;4990117;28;20651;-73
2022/07/19 02:30:00;;;;;;;7.72;6.85;;;;;;;;;;5015953;28;20671;-72
2022/07/19 02:32:25;;;;;;;11.23;7.20;;;;;;;;;;5009325;28;20182;-73
2022/07/19 02:34:50;;;;;;;7.68;6.88;;;;;;;;;;5011514;28;20580;-73
2022/07/19 02:37:15;;;;;;;10.73;7.55;;;;;;;;;;5012792;28;20175;-73
2022/07/19 02:39:41;;;;;;;11.38;7.45;;;;;;;;;;5010489;28;20222;-73
2022/07/19 02:42:06;;;;;;;10.15;7.45;;;;;;;;;;5024804;28;20177;-73
2022/07/19 02:44:31;;;;;;;8.35;7.28;;;;;;;;;;5017612;28;20210;-73
2022/07/19 02:46:56;;;;;;;8.60;7.53;;;;;;;;;;5011271;28;20605;-73
2022/07/19 02:49:22;;;;;;;8.95;7.20;;;;;;;;;;5004487;28;20452;-72
2022/07/19 02:51:47;;;;;;;11.27;7.18;;;;;;;;;;4998177;28;20171;-71
2022/07/19 02:54:12;;;;;;;11.63;7.15;;;;;;;;;;5010780;28;20230;-71
2022/07/19 02:56:38;;;;;;;8.77;7.43;;;;;;;;;;5006968;28;20266;-71
2022/07/19 02:59:03;;;;;;;8.32;7.25;;;;;;;;;;5007826;28;20201;-71
2022/07/19 03:01:29;;;;;;;8.27;7.45;;;;;;;;;;5011311;28;20195;-72
2022/07/19 03:03:54;;;;;;;11.95;8.45;;;;;;;;;;5018533;28;20183;-72
2022/07/19 03:06:20;;;;;;;8.18;7.10;;;;;;;;;;5014490;28;20219;-71
2022/07/19 03:08:45;;;;;;;8.80;7.18;;;;;;;;;;5016709;28;20193;-71
2022/07/19 03:11:10;;;;;;;14.82;8.18;;;;;;;;;;5021796;28;20289;-71
2022/07/19 03:13:36;;;;;;;11.02;7.90;;;;;;;;;;5016641;28;20175;-71
2022/07/19 03:16:01;;;;;;;10.20;7.40;;;;;;;;;;5025568;28;20162;-72
2022/07/19 03:18:26;;;;;;;9.38;7.90;;;;;;;;;;5012898;28;20719;-72
2022/07/19 03:20:51;;;;;;;7.90;7.10;;;;;;;;;;5021207;28;20210;-71
2022/07/19 03:23:17;;;;;;;6.80;6.10;;;;;;;;;;5008671;28;20192;-71
2022/07/19 03:25:42;;;;;;;8.30;7.50;;;;;;;;;;5011772;28;20519;-71
2022/07/19 03:28:07;;;;;;;9.48;6.38;;;;;;;;;;5016502;28;20186;-71
2022/07/19 03:30:32;;;;;;;8.95;5.88;;;;;;;;;;5012736;28;20218;-72
2022/07/19 03:32:58;;;;;;;8.90;7.97;;;;;;;;;;4997078;28;20198;-72
2022/07/19 03:35:23;;;;;;;8.45;7.25;;;;;;;;;;5011565;28;20191;-72
2022/07/19 03:37:48;;;;;;;10.43;7.13;;;;;;;;;;5013342;28;20185;-71
2022/07/19 03:40:14;;;;;;;7.97;7.28;;;;;;;;;;5016763;28;20604;-71
2022/07/19 03:42:39;;;;;;;11.10;8.18;;;;;;;;;;4998447;28;20190;-71
2022/07/19 03:45:04;;;;;;;11.98;7.57;;;;;;;;;;5012356;28;20182;-71
2022/07/19 03:47:30;;;;;;;9.57;7.90;;;;;;;;;;5012567;28;20187;-71
2022/07/19 03:49:56;;;;;;;11.68;7.38;;;;;;;;;;5012386;28;20302;-71
2022/07/19 03:52:21;;;;;;;10.80;7.88;;;;;;;;;;5010104;28;20186;-71
2022/07/19 03:54:47;;;;;;;8.80;6.97;;;;;;;;;;5015868;28;20179;-72
2022/07/19 03:57:12;;;;;;;7.87;7.07;;;;;;;;;;4997038;28;20171;-72
2022/07/19 03:59:37;;;;;;;8.45;6.57;;;;;;;;;;5010573;28;20970;-72
2022/07/19 04:02:02;;;;;;;12.40;7.87;;;;;;;;;;5010215;28;20183;-73
2022/07/19 04:04:27;;;;;;;10.90;7.10;;;;;;;;;;5013513;28;20431;-73
2022/07/19 04:06:53;;;;;;;8.57;6.85;;;;;;;;;;5017536;28;20313;-73
2022/07/19 04:09:18;;;;;;;10.95;7.95;;;;;;;;;;5003853;28;20217;-73
2022/07/19 04:11:43;;;;;;;7.88;6.38;;;;;;;;;;5011859;28;20176;-73
2022/07/19 04:14:08;;;;;;;10.13;7.32;;;;;;;;;;5006395;28;20175;-73
2022/07/19 04:16:34;;;;;;;8.20;6.78;;;;;;;;;;4992230;28;20206;-73
2022/07/19 04:18:59;;;;;;;7.38;6.68;;;;;;;;;;5008832;28;20183;-73
2022/07/19 04:21:24;;;;;;;8.03;7.10;;;;;;;;;;4996310;28;20189;-73
2022/07/19 04:23:49;;;;;;;8.60;6.78;;;;;;;;;;5006129;28;20472;-73
2022/07/19 04:26:15;;;;;;;9.55;5.93;;;;;;;;;;5017492;28;20190;-73
2022/07/19 04:28:40;;;;;;;6.87;6.00;;;;;;;;;;4995880;28;20715;-73
2022/07/19 04:31:05;;;;;;;8.00;7.10;;;;;;;;;;5016235;28;20534;-73
2022/07/19 04:33:30;;;;;;;7.65;6.55;;;;;;;;;;5005260;28;20230;-73
2022/07/19 04:35:56;;;;;;;8.65;6.05;;;;;;;;;;5006810;28;20190;-74
2022/07/19 04:38:21;;;;;;;6.30;5.40;;;;;;;;;;5014881;28;20253;-74
2022/07/19 04:40:47;;;;;;;9.40;6.80;;;;;;;;;;5012889;28;20846;-74
2022/07/19 04:43:12;;;;;;;6.47;5.78;;;;;;;;;;5011458;28;20274;-74
2022/07/19 04:45:39;;;;;;;8.02;7.20;;;;;;;;;;5010762;28;20170;-72
2022/07/19 04:48:04;;;;;;;6.45;5.28;;;;;;;;;;5003676;28;20258;-73
2022/07/19 04:50:30;;;;;;;7.65;5.63;;;;;;;;;;5014193;28;21162;-74
2022/07/19 04:52:55;;;;;;;7.43;5.85;;;;;;;;;;5011119;28;20175;-72
2022/07/19 04:55:20;;;;;;;6.68;5.68;;;;;;;;;;5009605;28;20657;-72
2022/07/19 04:57:45;;;;;;;9.25;5.97;;;;;;;;;;5002614;28;20554;-72
2022/07/19 05:00:11;;;;;;;7.80;5.80;;;;;;;;;;5015897;28;20207;-72
2022/07/19 05:02:36;;;;;;;8.05;5.38;;;;;;;;;;4992873;28;20270;-73
2022/07/19 05:05:02;;;;;;;9.23;6.05;;;;;;;;;;5009282;28;20183;-73
2022/07/19 05:07:28;;;;;;;6.75;5.32;;;;;;;;;;4997664;28;20184;-73
2022/07/19 05:09:53;;;;;;;8.13;6.03;;;;;;;;;;5021434;28;20210;-72
2022/07/19 05:12:18;;;;;;;7.00;5.90;;;;;;;;;;5000735;28;20187;-71
2022/07/19 05:14:43;;;;;;;10.20;6.33;;;;;;;;;;5004813;28;20543;-71
2022/07/19 05:17:08;;;;;;;6.03;5.13;;;;;;;;;;4973244;28;20460;-72
2022/07/19 05:19:34;;;;;;;6.60;5.00;;;;;;;;;;4983285;28;20209;-71
2022/07/19 05:21:59;;;;;;;9.73;5.60;;;;;;;;;;4986282;28;20171;-71
2022/07/19 05:24:24;;;;;;;5.93;5.03;;;;;;;;;;4982188;28;20194;-71
2022/07/19 05:26:49;;;;;;;6.03;5.20;;;;;;;;;;4981743;28;20436;-71
2022/07/19 05:29:14;;;;;;;9.93;5.13;;;;;;;;;;4981544;28;20633;-71
2022/07/19 05:31:39;;;;;;;8.37;5.13;;;;;;;;;;4981037;28;20231;-71
2022/07/19 05:34:05;;;;;;;9.77;5.67;;;;;;;;;;4981180;28;20943;-71
2022/07/19 05:36:30;;;;;;;7.13;4.90;;;;;;;;;;4964402;28;20427;-71
2022/07/19 05:38:55;;;;;;;9.07;5.88;;;;;;;;;;4982089;28;20206;-72
2022/07/19 05:41:21;;;;;;;7.70;5.05;;;;;;;;;;4979138;28;20274;-72
2022/07/19 05:43:47;;;;;;;6.28;4.93;;;;;;;;;;4985163;28;20186;-71
2022/07/19 05:46:12;;;;;;;6.18;4.82;;;;;;;;;;4982894;28;20216;-71
2022/07/19 05:48:38;;;;;;;6.83;5.37;;;;;;;;;;4983909;28;20195;-71
2022/07/19 05:51:03;;;;;;;6.80;4.53;;;;;;;;;;4985558;28;20459;-72
2022/07/19 05:53:28;;;;;;;7.05;4.97;;;;;;;;;;4992041;28;20194;-71
2022/07/19 05:55:53;;;;;;;7.83;5.03;;;;;;;;;;4968078;28;20187;-71
2022/07/19 05:58:19;;;;;;;8.63;4.95;;;;;;;;;;4984246;28;20439;-71
2022/07/19 06:01:17;;;;;;;12.17;5.07;;;;;;;;;;4985574;28;20217;-71
2022/07/19 06:03:30;;;;;;;7.28;4.53;;;;;;;;;;4985113;28;20433;-71
2022/07/19 06:05:55;;;;;;;8.13;4.00;;;;;;;;;;4982733;28;20248;-72
2022/07/19 06:08:20;;;;;;;13.38;4.68;;;;;;;;;;4987467;28;20193;-72
2022/07/19 06:10:45;;;;;;;7.30;4.80;;;;;;;;;;4967113;28;20198;-72
2022/07/19 06:13:10;;;;;;;8.67;4.83;;;;;;;;;;4987222;28;20429;-72
2022/07/19 06:15:36;;;;;;;9.47;4.40;;;;;;;;;;4985017;28;20460;-72
2022/07/19 06:18:01;;;;;;;7.67;5.23;;;;;;;;;;4992182;28;20451;-72
2022/07/19 06:20:26;;;;;;;6.63;4.80;;;;;;;;;;4984301;28;20801;-72
2022/07/19 06:22:51;;;;;;;7.93;4.53;;;;;;;;;;4991503;28;20436;-72
2022/07/19 06:25:16;;;;;;;10.85;5.57;;;;;;;;;;4985965;28;20432;-71
2022/07/19 06:27:42;;;;;;;7.40;4.13;;;;;;;;;;4986728;28;20176;-71
2022/07/19 06:30:07;;;;;;;8.23;5.53;;;;;;;;;;5018889;28;20771;-71
2022/07/19 06:32:32;;;;;;;11.93;5.30;;;;;;;;;;5013888;28;20418;-71
2022/07/19 06:34:57;;;;;;;11.77;5.83;;;;;;;;;;5018611;28;20170;-71
2022/07/19 06:37:23;;;;;;;8.07;5.30;;;;;;;;;;5025177;28;20909;-71
2022/07/19 06:39:48;;;;;;;14.20;6.33;;;;;;;;;;5021524;28;20440;-71
2022/07/19 06:42:13;;;;;;;8.63;5.63;;;;;;;;;;5023603;28;20466;-71
2022/07/19 06:44:38;;;;;;;8.20;5.43;;;;;;;;;;5013057;28;20495;-71
2022/07/19 06:47:03;;;;;;;7.63;6.47;;;;;;;;;;5017683;28;20182;-71
2022/07/19 06:49:28;;;;;;;11.73;5.80;;;;;;;;;;5005132;28;20467;-71
2022/07/19 06:51:54;;;;;;;10.82;5.78;;;;;;;;;;5028000;28;20703;-71
2022/07/19 06:54:19;;;;;;;11.20;5.60;;;;;;;;;;5019726;28;20209;-71
2022/07/19 06:56:44;;;;;;;9.35;5.30;;;;;;;;;;5016085;28;20171;-72
2022/07/19 06:59:09;;;;;;;9.37;5.20;;;;;;;;;;5014594;28;20190;-71
2022/07/19 07:01:34;;;;;;;7.07;5.10;;;;;;;;;;5014650;28;20236;-71
2022/07/19 07:04:00;;;;;;;8.10;5.33;;;;;;;;;;4989175;28;20421;-72
2022/07/19 07:06:25;;;;;;;8.60;5.77;;;;;;;;;;4985506;28;20676;-72
2022/07/19 07:08:50;;;;;;;7.70;4.73;;;;;;;;;;4984696;28;20242;-71
2022/07/19 07:11:15;;;;;;;8.43;4.67;;;;;;;;;;5010882;28;20218;-70
2022/07/19 07:13:40;;;;;;;7.50;4.27;;;;;;;;;;5012446;28;20263;-71
2022/07/19 07:16:06;;;;;;;6.40;4.27;;;;;;;;;;5008721;28;20429;-71
2022/07/19 07:18:31;;;;;;;5.18;3.72;;;;;;;;;;5010648;28;20428;-71
2022/07/19 07:20:56;;;;;;;10.45;4.72;;;;;;;;;;5010935;28;20301;-70
2022/07/19 07:23:22;;;;;;;9.10;4.27;;;;;;;;;;5012455;28;20186;-71
2022/07/19 07:25:47;;;;;;;8.23;4.50;;;;;;;;;;5011359;28;20415;-71
2022/07/19 07:28:13;;;;;;;9.07;4.10;;;;;;;;;;5010869;28;20684;-71
2022/07/19 07:30:38;;;;;;;12.93;4.30;;;;;;;;;;5008454;28;20198;-73
2022/07/19 07:33:03;;;;;;;8.70;4.17;;;;;;;;;;5008891;28;20426;-71
2022/07/19 07:35:28;;;;;;;10.47;4.50;;;;;;;;;;5001941;28;20281;-71
2022/07/19 07:37:53;;;;;;;4.87;4.10;;;;;;;;;;4999561;28;20498;-71
2022/07/19 07:40:19;;;;;;;8.20;4.18;;;;;;;;;;5012746;28;20772;-71
2022/07/19 07:42:44;;;;;;;11.15;4.63;;;;;;;;;;4990643;28;20191;-71
2022/07/19 07:45:10;;;;;;;10.88;4.72;;;;;;;;;;4990761;28;20744;-71
2022/07/19 07:47:36;;;;;;;11.15;4.38;;;;;;;;;;4982190;28;20202;-71
2022/07/19 07:50:01;;;;;;;7.88;4.00;;;;;;;;;;4981081;28;20213;-71
2022/07/19 07:52:27;;;;;;;8.43;4.10;;;;;;;;;;4982980;28;20179;-71
2022/07/19 07:54:52;;;;;;;7.03;3.80;;;;;;;;;;4983306;28;20184;-71
2022/07/19 07:57:18;;;;;;;7.65;3.63;;;;;;;;;;4964020;28;20277;-71
2022/07/19 07:59:43;;;;;;;11.87;3.90;;;;;;;;;;4982497;28;20273;-71
2022/07/19 08:02:08;;;;;;;7.82;4.22;;;;;;;;;;4982722;28;20479;-71
2022/07/19 08:04:33;;;;;;;8.17;3.80;;;;;;;;;;4982435;28;20665;-71
2022/07/19 08:06:58;;;;;;;7.47;4.13;;;;;;;;;;4999028;28;20463;-70
2022/07/19 08:09:24;;;;;;;7.90;3.87;;;;;;;;;;5010581;28;20255;-71
2022/07/19 08:11:49;;;;;;;6.00;3.83;;;;;;;;;;5008130;28;20654;-71
2022/07/19 08:14:14;;;;;;;6.55;3.38;;;;;;;;;;5006168;28;20427;-71
2022/07/19 08:16:39;;;;;;;14.45;3.45;;;;;;;;;;5005469;28;20590;-71
2022/07/19 08:19:05;;;;;;;9.17;3.27;;;;;;;;;;5005482;28;20197;-71
2022/07/19 08:21:30;;;;;;;11.38;3.45;;;;;;;;;;4981943;28;20190;-71
2022/07/19 08:23:56;;;;;;;8.73;3.50;;;;;;;;;;4986542;28;20718;-71
2022/07/19 08:26:21;;;;;;;7.90;3.58;;;;;;;;;;4982134;28;20228;-71
2022/07/19 08:28:47;;;;;;;8.88;4.60;;;;;;;;;;5002583;28;20284;-71
2022/07/19 08:31:13;;;;;;;9.02;3.15;;;;;;;;;;5012082;28;20221;-71
2022/07/19 08:33:39;;;;;;;5.55;2.85;;;;;;;;;;5009716;28;20559;-71
2022/07/19 08:36:04;;;;;;;8.27;3.25;;;;;;;;;;5008945;28;20186;-70
2022/07/19 08:38:30;;;;;;;6.13;3.05;;;;;;;;;;5010289;28;20263;-71
2022/07/19 08:40:55;;;;;;;5.03;2.67;;;;;;;;;;5034759;22;20691;-69
2022/07/19 08:43:22;;;;;;;6.38;3.40;;;;;;;;;;5029905;28;20173;-69
2022/07/19 08:45:47;;;;;;;6.63;2.78;;;;;;;;;;5027663;28;20178;-69
2022/07/19 08:48:13;;;;;;;7.30;2.88;;;;;;;;;;5028315;28;20191;-69
2022/07/19 08:50:38;;;;;;;6.75;2.80;;;;;;;;;;5030084;28;20201;-69
2022/07/19 08:53:04;;;;;;;4.65;3.10;;;;;;;;;;5029286;28;20185;-69
2022/07/19 08:55:29;;;;;;;9.35;3.00;;;;;;;;;;5027759;28;20560;-69
2022/07/19 08:57:58;;;;;;;6.70;3.10;;;;;;;;;;5029776;28;20181;-69
2022/07/19 09:00:33;;;;;;;7.47;3.20;;;;;;;;;;5027671;28;20457;-69
2022/07/19 09:02:59;;;;;;;7.82;3.05;;;;;;;;;;5001488;28;20663;-68
2022/07/19 09:05:24;;;;;;;3.83;2.63;;;;;;;;;;5002838;28;20166;-69
2022/07/19 09:08:00;;;;;;;9.47;3.30;;;;;;;;;;5001865;28;21453;-69
2022/07/19 09:10:26;;;;;;;5.57;2.72;;;;;;;;;;5001683;28;20462;-69
2022/07/19 09:13:03;;;;;;;9.23;2.90;;;;;;;;;;5023108;28;20662;-69
2022/07/19 09:15:38;;;;;;;7.28;2.92;;;;;;;;;;5003064;28;20184;-69
2022/07/19 09:18:22;;;;;;;5.93;3.28;;;;;;;;;;5001864;28;20182;-68
2022/07/19 09:20:49;;;;;;;5.82;2.40;;;;;;;;;;5004337;28;20196;-69
2022/07/19 09:23:15;;;;;;;9.65;2.72;;;;;;;;;;4999753;28;20174;-69
2022/07/19 09:25:52;;;;;;;7.43;2.60;;;;;;;;;;5003305;28;20190;-69
2022/07/19 09:28:18;;;;;;;12.13;2.40;;;;;;;;;;5004109;28;20328;-69
2022/07/19 09:30:54;;;;;;;5.25;2.30;;;;;;;;;;5001651;28;20208;-69
2022/07/19 09:33:24;;;;;;;4.60;3.03;;;;;;;;;;4999412;28;20232;-69
2022/07/19 09:35:53;;;;;;;4.90;2.60;;;;;;;;;;5003197;28;20185;-69
2022/07/19 09:38:23;;;;;;;6.25;2.90;;;;;;;;;;5007011;28;20173;-68
2022/07/19 09:40:49;;;;;;;4.78;2.58;;;;;;;;;;5002400;28;20751;-69
2022/07/19 09:43:15;;;;;;;6.40;2.58;;;;;;;;;;5005719;28;20182;-69
2022/07/19 09:45:40;;;;;;;6.78;2.55;;;;;;;;;;5004099;28;20192;-69
2022/07/19 09:48:05;;;;;;;6.47;2.43;;;;;;;;;;5004307;28;20190;-69
2022/07/19 09:50:31;;;;;;;8.70;2.78;;;;;;;;;;5003823;28;20468;-69
2022/07/19 09:53:01;;;;;;;7.53;2.60;;;;;;;;;;5004561;28;20182;-68
2022/07/19 09:55:27;;;;;;;5.95;2.33;;;;;;;;;;5004991;28;20174;-69
2022/07/19 09:57:52;;;;;;;4.63;2.60;;;;;;;;;;5001912;28;20270;-68
2022/07/19 10:00:18;;;;;;;5.47;2.43;;;;;;;;;;5004692;28;20214;-69
2022/07/19 10:02:47;;;;;;;5.22;2.35;;;;;;;;;;5000560;28;20459;-69
2022/07/19 10:05:12;;;;;;;8.65;2.25;;;;;;;;;;5003293;28;20183;-68
2022/07/19 10:07:37;;;;;;;5.68;2.33;;;;;;;;;;5002965;28;20260;-69
2022/07/19 10:10:03;;;;;;;6.97;2.83;;;;;;;;;;5006157;28;20233;-68
2022/07/19 10:12:29;;;;;;;4.03;2.38;;;;;;;;;;5001214;28;20442;-70
2022/07/19 10:14:55;;;;;;;8.55;2.53;;;;;;;;;;5006493;28;20603;-69
2022/07/19 10:17:23;;;;;;;3.45;2.65;;;;;;;;;;5014397;28;20251;-69
2022/07/19 10:19:48;;;;;;;8.05;2.42;;;;;;;;;;5001955;28;20209;-69
2022/07/19 10:22:18;;;;;;;3.92;2.00;;;;;;;;;;5006636;28;20653;-69
2022/07/19 10:24:44;;;;;;;3.83;2.00;;;;;;;;;;5001213;28;20273;-69
2022/07/19 10:27:09;;;;;;;5.10;2.30;;;;;;;;;;5000927;28;20184;-69
2022/07/19 10:29:34;;;;;;;6.93;2.03;;;;;;;;;;5025832;28;20686;-70
2022/07/19 10:32:04;;;;;;;4.80;2.10;;;;;;;;;;5029154;28;20199;-70
2022/07/19 10:34:29;;;;;;;5.38;2.38;;;;;;;;;;5032404;28;20185;-69
2022/07/19 10:36:55;;;;;;;6.47;2.00;;;;;;;;;;5027319;28;20170;-69
2022/07/19 10:39:20;;;;;;;5.22;2.03;;;;;;;;;;5032135;28;20462;-69
2022/07/19 10:42:04;;;;;;;4.57;1.90;;;;;;;;;;5032284;28;20190;-69
2022/07/19 10:44:30;;;;;;;2.95;2.05;;;;;;;;;;5027128;28;20182;-69
2022/07/19 10:46:55;;;;;;;4.47;2.20;;;;;;;;;;5028918;28;20193;-68
2022/07/19 10:49:39;;;;;;;7.57;2.10;;;;;;;;;;5026175;28;20265;-69
2022/07/19 10:52:22;;;;;;;4.95;2.38;;;;;;;;;;5031330;28;20558;-69
2022/07/19 10:55:07;;;;;;;4.75;2.00;;;;;;;;;;5031185;28;20193;-69
2022/07/19 10:57:37;;;;;;;4.13;1.63;;;;;;;;;;5028030;28;20398;-68
2022/07/19 11:00:15;;;;;;;4.55;1.70;;;;;;;;;;5030641;28;20576;-68
2022/07/19 11:02:40;;;;;;;3.65;1.75;;;;;;;;;;5031925;28;20184;-69
2022/07/19 11:05:05;;;;;;;10.90;1.97;;;;;;;;;;5030591;28;20169;-68
2022/07/19 11:07:30;;;;;;;3.67;1.60;;;;;;;;;;5027843;28;20267;-69
2022/07/19 11:09:56;;;;;;;2.73;1.70;;;;;;;;;;5005808;28;20455;-68
2022/07/19 11:12:22;;;;;;;10.57;2.10;;;;;;;;;;5007401;28;20178;-69
2022/07/19 11:14:48;;;;;;;7.20;2.28;;;;;;;;;;5004255;28;20190;-68
2022/07/19 11:17:13;;;;;;;5.50;1.97;;;;;;;;;;5004119;28;20179;-68
2022/07/19 11:19:55;;;;;;;4.07;1.83;;;;;;;;;;5003468;28;20202;-68
2022/07/19 11:22:20;;;;;;;3.33;1.70;;;;;;;;;;5009412;28;20229;-69
2022/07/19 11:24:46;;;;;;;4.00;1.97;;;;;;;;;;5007168;28;20194;-68
2022/07/19 11:27:11;;;;;;;2.53;1.60;;;;;;;;;;5005984;28;20181;-68
2022/07/19 11:29:52;;;;;;;3.20;1.60;;;;;;;;;;5003338;28;20490;-68
2022/07/19 11:32:17;;;;;;;3.42;1.67;;;;;;;;;;5002411;28;20178;-68
2022/07/19 11:34:52;;;;;;;7.70;2.00;;;;;;;;;;5004943;28;20189;-71
2022/07/19 11:37:22;;;;;;;5.57;1.80;;;;;;;;;;5003663;28;20191;-68
2022/07/19 11:39:49;;;;;;;4.43;1.83;;;;;;;;;;5004070;28;20239;-68
2022/07/19 11:42:14;;;;;;;3.03;1.70;;;;;;;;;;5004847;28;20236;-68
2022/07/19 11:44:40;;;;;;;2.67;1.60;;;;;;;;;;5004037;28;21144;-68
2022/07/19 11:47:05;;;;;;;32.83;2.50;;;;;;;;;;5008520;28;20588;-69
2022/07/19 11:49:38;;;;;;;4.07;2.17;;;;;;;;;;5001738;28;20435;-68
2022/07/19 11:52:03;;;;;;;5.75;1.88;;;;;;;;;;5007373;28;20513;-68
2022/07/19 11:54:28;;;;;;;6.05;1.83;;;;;;;;;;5027703;28;20257;-68
2022/07/19 11:56:53;;;;;;;3.47;1.53;;;;;;;;;;5005041;28;20177;-68
2022/07/19 11:59:18;;;;;;;3.97;1.70;;;;;;;;;;5002834;28;20531;-68
2022/07/19 12:01:44;;;;;;;3.93;1.90;;;;;;;;;;5003096;28;20196;-68
2022/07/19 12:04:11;;;;;;;3.25;2.03;;;;;;;;;;5007910;28;20533;-68
2022/07/19 12:06:37;;;;;;;3.53;2.13;;;;;;;;;;5002268;28;20660;-68
2022/07/19 12:09:03;;;;;;;3.57;1.60;;;;;;;;;;5002516;28;20196;-68
2022/07/19 12:11:28;;;;;;;5.78;1.88;;;;;;;;;;5002584;28;20232;-68
2022/07/19 12:13:54;;;;;;;3.37;1.57;;;;;;;;;;5005118;28;20182;-68
2022/07/19 12:16:20;;;;;;;3.63;2.03;;;;;;;;;;5007424;28;20174;-68
2022/07/19 12:18:50;;;;;;;5.10;2.38;;;;;;;;;;5005992;28;20182;-68
2022/07/19 12:21:16;;;;;;;5.28;2.00;;;;;;;;;;5004222;28;20189;-69
2022/07/19 12:23:42;;;;;;;5.10;2.10;;;;;;;;;;5005818;28;20562;-68
2022/07/19 12:26:08;;;;;;;3.22;1.83;;;;;;;;;;5003718;28;20182;-68
2022/07/19 12:28:34;;;;;;;4.63;2.28;;;;;;;;;;5003021;28;20186;-69
2022/07/19 12:31:03;;;;;;;6.05;2.17;;;;;;;;;;5005362;28;20216;-68
2022/07/19 12:33:28;;;;;;;7.00;2.17;;;;;;;;;;5026644;28;20205;-68
2022/07/19 12:35:54;;;;;;;6.20;1.60;;;;;;;;;;5026086;28;20659;-68
2022/07/19 12:38:26;;;;;;;6.57;1.90;;;;;;;;;;5028159;28;20224;-68
2022/07/19 12:41:03;;;;;;;6.78;2.00;;;;;;;;;;5028922;28;20248;-68
2022/07/19 12:43:28;;;;;;;4.28;1.98;;;;;;;;;;5027260;28;20272;-68
2022/07/19 12:45:53;;;;;;;5.97;1.87;;;;;;;;;;5027443;28;20269;-68
2022/07/19 12:48:18;;;;;;;5.82;2.00;;;;;;;;;;5031023;28;20181;-68
2022/07/19 12:50:45;;;;;;;4.20;1.80;;;;;;;;;;5033296;28;20263;-68
2022/07/19 12:53:11;;;;;;;3.55;1.90;;;;;;;;;;5029028;28;20590;-68
2022/07/19 12:55:37;;;;;;;3.30;1.30;;;;;;;;;;5031468;28;20174;-68
2022/07/19 12:58:03;;;;;;;6.68;1.92;;;;;;;;;;5031054;28;20558;-68
2022/07/19 13:00:29;;;;;;;2.55;1.73;;;;;;;;;;5028990;28;20250;-69
2022/07/19 13:02:54;;;;;;;3.88;1.90;;;;;;;;;;5030822;28;20181;-69
2022/07/19 13:05:20;;;;;;;3.55;2.20;;;;;;;;;;5037971;28;20189;-68
2022/07/19 13:07:45;;;;;;;2.78;1.90;;;;;;;;;;5031609;28;20182;-68
2022/07/19 13:10:11;;;;;;;3.78;1.80;;;;;;;;;;5029879;28;20205;-68
2022/07/19 13:12:36;;;;;;;5.88;2.22;;;;;;;;;;5031172;28;20195;-68
2022/07/19 13:15:02;;;;;;;4.22;1.70;;;;;;;;;;5009684;28;20261;-68
2022/07/19 13:17:27;;;;;;;4.40;1.60;;;;;;;;;;5027171;28;20181;-68
2022/07/19 13:19:53;;;;;;;9.63;2.10;;;;;;;;;;5027948;28;20248;-68
2022/07/19 13:22:18;;;;;;;6.83;2.50;;;;;;;;;;5027654;28;20231;-68
2022/07/19 13:24:43;;;;;;;5.30;2.17;;;;;;;;;;5029950;28;20647;-68
2022/07/19 13:27:09;;;;;;;9.47;2.00;;;;;;;;;;5029690;28;20182;-68
2022/07/19 13:29:34;;;;;;;2.87;1.97;;;;;;;;;;5029940;28;20687;-68
2022/07/19 13:32:00;;;;;;;5.07;2.33;;;;;;;;;;5021379;28;20349;-69
2022/07/19 13:34:26;;;;;;;7.45;2.08;;;;;;;;;;5031183;28;20169;-68
2022/07/19 13:36:51;;;;;;;2.63;1.90;;;;;;;;;;5029450;28;20712;-69
2022/07/19 13:39:16;;;;;;;13.27;2.60;;;;;;;;;;5030676;28;20174;-68
2022/07/19 13:41:42;;;;;;;5.50;2.00;;;;;;;;;;5029734;28;20571;-69
2022/07/19 13:44:07;;;;;;;3.45;1.92;;;;;;;;;;5028770;28;20547;-68
2022/07/19 13:46:32;;;;;;;5.38;1.92;;;;;;;;;;5030349;28;20315;-69
2022/07/19 13:48:58;;;;;;;6.78;2.20;;;;;;;;;;5025805;28;20185;-68
2022/07/19 13:51:23;;;;;;;4.07;1.80;;;;;;;;;;5029021;28;20206;-68
2022/07/19 13:53:48;;;;;;;5.63;2.43;;;;;;;;;;5029728;28;20520;-68
2022/07/19 13:56:13;;;;;;;7.60;2.30;;;;;;;;;;5029608;28;20174;-68
2022/07/19 13:58:39;;;;;;;2.90;1.90;;;;;;;;;;5028918;28;20173;-68
2022/07/19 14:01:04;;;;;;;8.10;2.20;;;;;;;;;;5030991;28;20762;-67
2022/07/19 14:03:29;;;;;;;7.10;2.10;;;;;;;;;;5029972;28;20186;-69
2022/07/19 14:05:55;;;;;;;7.43;2.20;;;;;;;;;;5031567;28;20911;-68
2022/07/19 14:08:21;;;;;;;7.53;2.17;;;;;;;;;;5032655;28;20185;-68
2022/07/19 14:10:46;;;;;;;9.13;2.30;;;;;;;;;;5030074;28;20205;-69
2022/07/19 14:13:12;;;;;;;8.63;2.30;;;;;;;;;;5048973;28;20419;-68
2022/07/19 14:15:38;;;;;;;3.63;2.13;;;;;;;;;;5034734;28;20192;-67
2022/07/19 14:18:03;;;;;;;7.33;2.60;;;;;;;;;;5032758;28;20260;-68
2022/07/19 14:20:28;;;;;;;7.50;2.40;;;;;;;;;;5034449;28;20228;-68
2022/07/19 14:22:53;;;;;;;7.32;2.20;;;;;;;;;;5032273;28;20181;-68
2022/07/19 14:25:19;;;;;;;5.07;2.10;;;;;;;;;;5033438;28;20221;-68
2022/07/19 14:27:44;;;;;;;5.00;2.33;;;;;;;;;;5032662;28;20194;-68
2022/07/19 14:30:10;;;;;;;5.97;2.50;;;;;;;;;;5034487;28;20235;-68
2022/07/19 14:32:35;;;;;;;2.80;1.95;;;;;;;;;;5033060;28;20177;-68
2022/07/19 14:35:00;;;;;;;6.10;2.33;;;;;;;;;;5026124;28;20185;-69